Pagina principale
METAR-TAF:

METAR-TAF

Aeroporti :

Fiume, Croazia

latitudine: 45-13N, longitudine: 014-35E, altezza: 85 m

Osservazione

Il bollettino è stato emesso 16 minuti fa, alle 16:30 UTC
Vento 2 kt da nord/nord-ovest
Temperature 16°C
Umidità 63%
Pressione 1018 hPa
Visibilità 10 km o più
nessuna nube inferiore a 1500 m e nessun cumulonembo

METAR: LDRI 231630Z 33002KT CAVOK 16/09 Q1018

Ora: 18:46 (16:46 UTC)

Previsione

Il bollettino è stato emesso 5 ore e 21 minuti fa, alle 11:25 UTC
Previsione valida dal 23 alle 12 UTC al 24 alle 12 UTC
Vento 2 kt da direzioni variabili
Visibilità 10 km o più
nessuna nube inferiore a 1500 m e nessun cumulonembo
Temporaneamente
dal 23 alle 12 UTC al 23 alle 16 UTC
Vento 6 kt da nord-ovest

TAF: LDRI 231125Z 2312/2412 VRB02KT CAVOK TX21/2411Z TN15/2404Z TEMPO 2312/2316 32006KT

Osservazioni e previsioni meteorologiche di più di 4000 aeroporti (messaggi METAR e TAF).

Le stazioni disponibili sono rappresentate dai dischi gialli e rossi sulla carta.

Puntare il mouse per vedere il nome della stazione.

Clicca sopra per visualizzare le osservazioni e previsioni meteorologiche.

Per cambiare la mappa : fare clic sui pulsanti verdi con una croce nera per ingrandire, il pulsante verde con un trattino per diminuire, o sulla freccia verde per le mappe adiacenti.


METAR-TAF: